Time;durP1;ratioP1;P1;durP2;ratioP2;P2;SDS_P1;SDS_P2;PMS_P1;PMS_P2;Temp;Humidity;BMP_temperature;BMP_pressure;BME280_temperature;BME280_humidity;BME280_pressure;Samples;Min_cycle;Max_cycle;Signal;HPM_P1;HPM_P2
2021/09/14 00:02:21;;;;;;;3.28;1.90;;;14.80;91.20;;;;;;4934898;29;20046;-80
2021/09/14 00:04:47;;;;;;;2.58;1.83;;;14.80;90.50;;;;;;4929742;28;20043;-80
2021/09/14 00:07:12;;;;;;;3.70;2.05;;;14.80;90.30;;;;;;4938252;29;20160;-80
2021/09/14 00:09:38;;;;;;;5.70;2.25;;;14.70;90.40;;;;;;4930757;29;20110;-80
2021/09/14 00:12:04;;;;;;;2.97;2.67;;;14.70;90.70;;;;;;4928872;29;20203;-80
2021/09/14 00:14:30;;;;;;;2.40;2.10;;;14.70;90.70;;;;;;4941456;28;20039;-80
2021/09/14 00:16:56;;;;;;;4.25;1.92;;;14.70;90.80;;;;;;4928567;29;20032;-80
2021/09/14 00:19:22;;;;;;;2.85;2.22;;;14.70;90.80;;;;;;4937224;29;20134;-80
2021/09/14 00:21:47;;;;;;;2.65;2.15;;;14.70;90.90;;;;;;4936075;29;20042;-80
2021/09/14 00:24:13;;;;;;;3.53;2.17;;;14.80;90.70;;;;;;4937758;28;20042;-79
2021/09/14 00:26:39;;;;;;;3.60;2.10;;;14.80;90.70;;;;;;4932978;29;20946;-80
2021/09/14 00:29:05;;;;;;;3.05;2.30;;;14.80;90.50;;;;;;4930156;29;20028;-80
2021/09/14 00:31:32;;;;;;;3.95;2.20;;;14.80;90.50;;;;;;4952345;28;20152;-79
2021/09/14 00:33:58;;;;;;;3.25;1.70;;;14.80;90.40;;;;;;4935978;29;20107;-79
2021/09/14 00:36:24;;;;;;;4.18;1.85;;;14.80;90.40;;;;;;4949745;28;20758;-79
2021/09/14 00:38:49;;;;;;;2.55;2.00;;;14.80;90.40;;;;;;4939693;29;20416;-80
2021/09/14 00:41:15;;;;;;;3.95;2.30;;;14.80;90.30;;;;;;4939995;29;20037;-79
2021/09/14 00:43:41;;;;;;;3.50;1.95;;;14.90;90.20;;;;;;4942518;28;20491;-80
2021/09/14 00:46:07;;;;;;;2.53;2.15;;;14.90;89.80;;;;;;4939880;29;20051;-80
2021/09/14 00:48:33;;;;;;;2.95;2.30;;;14.80;89.60;;;;;;4929121;29;20039;-79
2021/09/14 00:50:59;;;;;;;3.97;2.20;;;14.80;89.40;;;;;;4934130;29;20035;-80
2021/09/14 00:53:26;;;;;;;3.05;2.05;;;14.80;89.10;;;;;;4946959;28;20150;-79
2021/09/14 00:55:55;;;;;;;3.80;2.22;;;14.70;89.30;;;;;;4950729;28;20075;-80
2021/09/14 00:58:21;;;;;;;2.35;2.15;;;14.70;89.40;;;;;;4941114;29;20039;-79
2021/09/14 01:00:46;;;;;;;3.28;2.30;;;14.70;89.60;;;;;;4933285;28;20046;-80
2021/09/14 01:03:12;;;;;;;3.28;2.38;;;14.70;90.00;;;;;;4933881;29;20048;-80
2021/09/14 01:05:38;;;;;;;3.72;3.00;;;14.60;90.20;;;;;;4933721;29;20031;-80
2021/09/14 01:08:07;;;;;;;4.80;3.67;;;14.70;90.60;;;;;;4951588;28;20031;-80
2021/09/14 01:10:36;;;;;;;4.32;3.45;;;14.70;90.90;;;;;;4934041;29;20031;-80
2021/09/14 01:13:02;;;;;;;3.90;3.50;;;14.70;91.20;;;;;;4931951;29;20027;-79
2021/09/14 01:15:28;;;;;;;4.72;3.85;;;14.70;91.40;;;;;;4942959;28;20031;-79
2021/09/14 01:17:54;;;;;;;6.88;4.40;;;14.80;91.40;;;;;;4939970;29;20458;-79
2021/09/14 01:20:20;;;;;;;4.65;3.83;;;14.80;91.50;;;;;;4934235;28;20031;-79
2021/09/14 01:22:47;;;;;;;4.57;3.33;;;14.80;91.40;;;;;;4940812;28;20035;-79
2021/09/14 01:25:23;;;;;;;3.50;3.13;;;14.90;91.30;;;;;;4950009;28;20032;-79
2021/09/14 01:27:56;;;;;;;5.20;3.10;;;14.80;91.10;;;;;;4937940;29;20110;-79
2021/09/14 01:30:29;;;;;;;;;;;14.80;91.00;;;;;;4927829;29;20032;-79
2021/09/14 01:32:55;;;;;;;7.82;3.30;;;14.80;91.00;;;;;;4942147;28;20381;-78
2021/09/14 01:35:30;;;;;;;5.88;3.75;;;14.90;91.20;;;;;;4935015;28;20036;-79
2021/09/14 01:37:59;;;;;;;7.32;3.75;;;14.80;91.40;;;;;;4940315;29;20122;-79
2021/09/14 01:40:29;;;;;;;3.83;3.25;;;14.80;91.50;;;;;;4929684;29;20176;-79
2021/09/14 01:43:05;;;;;;;7.10;3.85;;;14.80;91.50;;;;;;4940380;28;20047;-79
2021/09/14 01:45:31;;;;;;;5.53;3.85;;;14.80;91.50;;;;;;4935559;29;20036;-78
2021/09/14 01:47:57;;;;;;;5.03;3.40;;;14.80;91.50;;;;;;4926140;29;20038;-79
2021/09/14 01:50:23;;;;;;;5.13;3.70;;;14.80;91.40;;;;;;4925893;29;20059;-78
2021/09/14 01:52:49;;;;;;;4.30;3.72;;;14.80;91.40;;;;;;4937221;28;20024;-79
2021/09/14 01:55:18;;;;;;;5.57;3.88;;;14.90;91.30;;;;;;4946938;28;20031;-79
2021/09/14 01:57:44;;;;;;;4.18;3.63;;;14.80;91.30;;;;;;4920936;29;20509;-78
2021/09/14 02:00:18;;;;;;;5.63;3.65;;;14.80;91.30;;;;;;4933725;29;20031;-79
2021/09/14 02:05:49;;;;;;;9.90;4.43;;;14.90;91.10;;;;;;4931558;29;20039;-79
2021/09/14 02:38:40;;;;;;;8.00;3.60;;;14.60;91.30;;;;;;4932057;29;20114;-79
2021/09/14 02:41:18;;;;;;;4.47;3.08;;;14.50;91.40;;;;;;4933109;28;20801;-78
2021/09/14 02:44:33;;;;;;;9.52;3.17;;;14.50;91.50;;;;;;4938046;28;20059;-79
2021/09/14 03:00:12;;;;;;;5.15;2.58;;;14.50;91.70;;;;;;4933521;28;20035;-79
2021/09/14 03:02:38;;;;;;;6.70;3.33;;;14.50;91.70;;;;;;4948399;28;20174;-79
2021/09/14 03:05:09;;;;;;;4.60;3.03;;;14.50;91.80;;;;;;4931151;29;20041;-78
2021/09/14 03:07:34;;;;;;;3.50;3.00;;;14.50;91.80;;;;;;4933084;29;20111;-78
2021/09/14 03:10:01;;;;;;;5.88;3.15;;;14.50;92.10;;;;;;4940364;29;20135;-78
2021/09/14 03:12:28;;;;;;;5.55;3.28;;;14.40;91.80;;;;;;4937691;29;20028;-79
2021/09/14 03:14:53;;;;;;;3.70;2.75;;;14.50;91.90;;;;;;4928990;28;20038;-78
2021/09/14 03:17:19;;;;;;;3.90;2.85;;;14.40;91.80;;;;;;4939075;29;20444;-78
2021/09/14 03:19:46;;;;;;;4.97;2.72;;;14.40;91.70;;;;;;4939272;29;20062;-79
2021/09/14 03:22:12;;;;;;;4.22;3.10;;;14.40;91.70;;;;;;4925902;29;20688;-78
2021/09/14 03:24:39;;;;;;;5.68;3.17;;;14.40;91.60;;;;;;4932231;28;20035;-78
2021/09/14 03:27:05;;;;;;;6.07;3.60;;;14.40;91.50;;;;;;4913919;29;20507;-78
2021/09/14 03:29:31;;;;;;;4.25;3.10;;;14.30;91.40;;;;;;4930427;28;20503;-79
2021/09/14 03:31:57;;;;;;;3.85;3.10;;;14.30;91.50;;;;;;4932154;29;20043;-78
2021/09/14 03:34:23;;;;;;;7.55;3.33;;;14.30;91.60;;;;;;4935940;28;20039;-79
2021/09/14 03:36:50;;;;;;;5.78;3.38;;;14.30;91.50;;;;;;4931935;29;20031;-78
2021/09/14 03:39:16;;;;;;;7.55;3.50;;;14.20;91.50;;;;;;4934078;28;20035;-78
2021/09/14 03:41:42;;;;;;;6.10;4.18;;;14.20;91.50;;;;;;4929071;28;20068;-78
2021/09/14 03:44:08;;;;;;;3.75;3.15;;;14.20;91.50;;;;;;4936174;28;20089;-78
2021/09/14 03:46:34;;;;;;;5.10;3.17;;;14.20;91.60;;;;;;4944899;28;20031;-78
2021/09/14 03:49:02;;;;;;;4.55;3.60;;;14.20;91.60;;;;;;4931452;29;20130;-78
2021/09/14 03:51:31;;;;;;;6.50;3.50;;;14.20;91.40;;;;;;4944278;28;20031;-79
2021/09/14 03:53:57;;;;;;;6.22;3.40;;;14.10;91.30;;;;;;4949766;28;20087;-78
2021/09/14 03:56:23;;;;;;;4.03;3.17;;;14.10;91.20;;;;;;4929090;29;20074;-79
2021/09/14 03:58:49;;;;;;;4.40;3.40;;;14.00;91.10;;;;;;4954193;28;20050;-80
2021/09/14 04:01:14;;;;;;;4.30;3.10;;;14.00;91.00;;;;;;4942130;29;20043;-78
2021/09/14 04:03:45;;;;;;;5.10;2.95;;;14.00;91.00;;;;;;4938040;28;20028;-78
2021/09/14 04:08:53;;;;;;;6.22;3.30;;;13.90;91.30;;;;;;4939068;29;20047;-79
2021/09/14 04:11:27;;;;;;;4.72;3.55;;;13.90;91.40;;;;;;4940836;29;20027;-78
2021/09/14 04:13:56;;;;;;;4.20;3.42;;;13.90;91.20;;;;;;4931329;29;20032;-78
2021/09/14 04:16:22;;;;;;;7.05;3.30;;;13.90;91.20;;;;;;4935298;29;20024;-79
2021/09/14 04:18:49;;;;;;;5.80;3.65;;;13.90;91.30;;;;;;4957408;28;20090;-79
2021/09/14 04:21:15;;;;;;;3.85;3.20;;;13.90;91.40;;;;;;4941253;28;20043;-79
2021/09/14 04:23:41;;;;;;;7.47;3.20;;;13.90;91.20;;;;;;4944601;28;20150;-79
2021/09/14 04:26:07;;;;;;;4.10;3.45;;;13.90;91.30;;;;;;4943217;28;20035;-78
2021/09/14 04:28:34;;;;;;;3.58;3.17;;;13.80;91.60;;;;;;4942088;28;20067;-78
2021/09/14 04:31:00;;;;;;;6.88;3.70;;;13.80;91.70;;;;;;4942459;28;20041;-78
2021/09/14 04:33:26;;;;;;;4.97;3.17;;;13.80;91.60;;;;;;4952421;28;20031;-78
2021/09/14 04:35:54;;;;;;;6.18;3.50;;;13.80;91.60;;;;;;4940155;28;20513;-79
2021/09/14 04:38:24;;;;;;;5.20;3.80;;;13.80;91.60;;;;;;4949690;28;20032;-78
2021/09/14 04:40:50;;;;;;;4.88;3.45;;;13.80;91.70;;;;;;4944545;28;20039;-78
2021/09/14 04:43:16;;;;;;;3.70;3.20;;;13.80;91.60;;;;;;4941910;28;20044;-78
2021/09/14 04:45:42;;;;;;;5.05;3.90;;;13.80;91.60;;;;;;4936435;28;20043;-78
2021/09/14 04:48:10;;;;;;;3.97;3.22;;;13.80;91.60;;;;;;4935193;29;20606;-78
2021/09/14 04:50:37;;;;;;;4.95;3.40;;;13.80;91.50;;;;;;4948266;28;20043;-78
2021/09/14 04:53:03;;;;;;;4.53;3.22;;;13.80;91.70;;;;;;4950039;28;20502;-78
2021/09/14 04:55:30;;;;;;;3.00;2.70;;;13.70;91.60;;;;;;4934673;28;20035;-78
2021/09/14 04:57:57;;;;;;;3.08;2.50;;;13.70;91.40;;;;;;4944864;28;20035;-78
2021/09/14 05:00:23;;;;;;;7.25;2.80;;;13.70;91.20;;;;;;4940896;28;20034;-78
2021/09/14 05:02:48;;;;;;;3.65;2.78;;;13.70;91.20;;;;;;4945449;28;20035;-78
2021/09/14 05:05:14;;;;;;;3.85;2.83;;;13.70;91.20;;;;;;4947550;28;20040;-78
2021/09/14 05:07:40;;;;;;;4.18;2.65;;;13.70;91.30;;;;;;4945598;28;20495;-79
2021/09/14 05:10:07;;;;;;;3.85;2.47;;;13.70;91.30;;;;;;4939509;28;20066;-78
2021/09/14 05:12:36;;;;;;;3.47;2.20;;;13.70;91.10;;;;;;4956258;28;20114;-77
2021/09/14 05:15:02;;;;;;;2.67;2.33;;;13.60;91.00;;;;;;4945283;28;20028;-78
2021/09/14 05:18:10;;;;;;;2.33;2.10;;;13.60;90.80;;;;;;4946621;28;20043;-78
2021/09/14 05:20:47;;;;;;;2.90;2.60;;;13.60;90.80;;;;;;4939636;29;20270;-78
2021/09/14 05:25:41;;;;;;;2.92;2.63;;;13.60;90.90;;;;;;4960314;28;20034;-78
2021/09/14 05:28:07;;;;;;;3.40;2.35;;;13.70;90.80;;;;;;4947774;28;20566;-78
2021/09/14 05:30:33;;;;;;;7.20;2.85;;;13.70;90.80;;;;;;4945734;28;20740;-78
2021/09/14 05:32:59;;;;;;;4.70;3.25;;;13.70;90.90;;;;;;4937259;28;20035;-77
2021/09/14 05:35:33;;;;;;;4.00;2.53;;;13.70;91.00;;;;;;4945889;28;20643;-78
2021/09/14 05:37:59;;;;;;;4.25;3.10;;;13.70;91.10;;;;;;4946904;28;20577;-78
2021/09/14 05:40:25;;;;;;;3.47;2.85;;;13.70;91.20;;;;;;4930553;28;20032;-78
2021/09/14 05:42:52;;;;;;;4.70;2.80;;;13.80;91.30;;;;;;4940904;28;20045;-78
2021/09/14 05:45:18;;;;;;;7.32;4.28;;;13.80;91.40;;;;;;4954129;28;20044;-82
2021/09/14 05:47:44;;;;;;;6.25;3.90;;;13.90;91.50;;;;;;4948465;28;20035;-82
2021/09/14 05:50:11;;;;;;;10.27;5.45;;;13.90;91.60;;;;;;4932972;28;20086;-82
2021/09/14 05:52:38;;;;;;;7.97;4.10;;;14.00;91.90;;;;;;4928613;29;20027;-82
2021/09/14 05:55:05;;;;;;;4.80;3.33;;;14.10;91.90;;;;;;4949848;28;20511;-82
2021/09/14 05:57:31;;;;;;;7.85;4.47;;;14.10;91.80;;;;;;4943048;28;20086;-82
2021/09/14 05:59:57;;;;;;;6.25;3.58;;;14.20;91.90;;;;;;4926786;29;20031;-82
2021/09/14 06:02:23;;;;;;;3.83;3.03;;;14.20;91.80;;;;;;4941528;29;20034;-82
2021/09/14 06:04:51;;;;;;;3.85;2.90;;;14.30;91.70;;;;;;4945930;28;20049;-84
2021/09/14 06:07:17;;;;;;;7.00;3.35;;;14.30;91.70;;;;;;4947706;28;20035;-83
2021/09/14 06:09:45;;;;;;;6.95;4.07;;;14.40;91.70;;;;;;4945805;28;20117;-83
2021/09/14 06:12:11;;;;;;;5.90;3.63;;;14.40;91.60;;;;;;4944710;29;20491;-84
2021/09/14 06:14:37;;;;;;;7.40;4.32;;;14.50;91.60;;;;;;4937835;28;20122;-83
2021/09/14 06:17:03;;;;;;;5.82;3.53;;;14.50;91.60;;;;;;4932092;28;20086;-82
2021/09/14 06:19:30;;;;;;;5.13;3.10;;;14.60;91.60;;;;;;4949343;28;20042;-83
2021/09/14 06:21:55;;;;;;;6.03;4.13;;;14.60;91.70;;;;;;4939998;28;20040;-83
2021/09/14 06:24:21;;;;;;;5.47;3.65;;;14.60;91.70;;;;;;4949674;28;20098;-82
2021/09/14 06:26:49;;;;;;;5.78;3.85;;;14.70;91.80;;;;;;4941398;28;20035;-83
2021/09/14 06:29:16;;;;;;;8.35;4.22;;;14.80;91.80;;;;;;4922845;29;20922;-83
2021/09/14 06:31:42;;;;;;;4.95;3.80;;;14.90;91.90;;;;;;4954162;28;20126;-84
2021/09/14 06:34:28;;;;;;;8.55;4.30;;;15.00;91.90;;;;;;4929105;29;20062;-81
2021/09/14 06:36:54;;;;;;;5.07;3.88;;;15.00;91.80;;;;;;4932779;29;20499;-82
2021/09/14 06:39:20;;;;;;;5.53;4.70;;;15.10;91.90;;;;;;4938288;28;20944;-70
2021/09/14 06:41:46;;;;;;;9.63;4.07;;;15.20;91.90;;;;;;4929066;29;20497;-86
2021/09/14 06:44:12;;;;;;;7.43;4.45;;;15.30;91.80;;;;;;4923559;29;20078;-86
2021/09/14 06:46:50;;;;;;;8.23;3.85;;;15.40;91.60;;;;;;4934071;29;20571;-87
2021/09/14 06:49:16;;;;;;;7.55;3.92;;;15.50;91.10;;;;;;4931168;29;20039;-79
2021/09/14 06:51:42;;;;;;;7.07;4.10;;;15.70;90.90;;;;;;4918389;28;20027;-72
2021/09/14 06:54:08;;;;;;;5.97;4.00;;;15.80;90.70;;;;;;4929290;28;20028;-77
2021/09/14 06:56:34;;;;;;;5.30;3.63;;;16.00;90.20;;;;;;4932613;29;20040;-78
2021/09/14 06:59:00;;;;;;;8.02;4.75;;;16.20;89.80;;;;;;4945108;28;20802;-77
2021/09/14 07:01:26;;;;;;;6.07;3.60;;;16.40;88.90;;;;;;4932107;29;20401;-77
2021/09/14 07:03:54;;;;;;;7.15;4.65;;;16.60;88.40;;;;;;4937601;28;20043;-77
2021/09/14 07:06:20;;;;;;;7.78;3.88;;;16.60;86.50;;;;;;4929310;29;20134;-78
2021/09/14 07:08:48;;;;;;;8.65;4.25;;;16.80;86.30;;;;;;4947087;28;20401;-78
2021/09/14 07:11:14;;;;;;;8.82;4.07;;;16.90;86.20;;;;;;4947655;28;20037;-79
2021/09/14 07:13:41;;;;;;;6.25;3.28;;;17.00;84.50;;;;;;4936288;28;20036;-80
2021/09/14 07:16:07;;;;;;;5.68;3.25;;;17.10;85.30;;;;;;4933449;28;20468;-80
2021/09/14 07:18:33;;;;;;;6.97;3.47;;;17.10;84.40;;;;;;4933095;28;20074;-79
2021/09/14 07:20:59;;;;;;;9.20;4.00;;;17.20;84.20;;;;;;4940128;29;20055;-78
2021/09/14 07:23:24;;;;;;;10.27;3.83;;;17.20;85.00;;;;;;4938582;28;20077;-78
2021/09/14 07:25:51;;;;;;;5.43;3.63;;;17.20;85.30;;;;;;4919721;29;20130;-79
2021/09/14 07:28:16;;;;;;;5.10;3.20;;;17.30;84.60;;;;;;4941236;28;20088;-78
2021/09/14 07:30:43;;;;;;;8.20;3.03;;;17.30;85.30;;;;;;4933138;28;20030;-78
2021/09/14 07:33:09;;;;;;;4.75;3.08;;;17.40;83.00;;;;;;4954731;28;20046;-79
2021/09/14 07:35:36;;;;;;;4.40;2.67;;;17.50;83.30;;;;;;4932266;29;20158;-68
2021/09/14 07:38:02;;;;;;;4.68;2.95;;;17.50;83.10;;;;;;4938965;28;20063;-68
2021/09/14 07:40:28;;;;;;;4.68;3.00;;;17.60;83.50;;;;;;4935944;28;20612;-71
2021/09/14 07:42:54;;;;;;;3.50;3.10;;;17.70;83.20;;;;;;4934750;28;20039;-67
2021/09/14 07:45:21;;;;;;;4.75;2.78;;;17.70;80.60;;;;;;4935376;28;20043;-78
2021/09/14 07:47:47;;;;;;;5.13;2.63;;;17.80;79.20;;;;;;4929786;28;20059;-72
2021/09/14 07:50:13;;;;;;;3.70;3.00;;;17.90;80.00;;;;;;4931189;29;20023;-72
2021/09/14 07:52:38;;;;;;;5.45;3.38;;;18.00;80.20;;;;;;4935517;28;20031;-72
2021/09/14 07:55:05;;;;;;;6.95;2.80;;;18.10;80.90;;;;;;4936898;28;20027;-72
2021/09/14 07:57:31;;;;;;;4.15;2.72;;;18.30;80.00;;;;;;4940816;28;20050;-66
2021/09/14 07:59:57;;;;;;;4.07;2.42;;;18.40;79.50;;;;;;4941084;28;20050;-72
2021/09/14 08:02:23;;;;;;;4.38;2.95;;;18.60;78.20;;;;;;4939775;29;20063;-72
2021/09/14 08:04:49;;;;;;;3.92;2.90;;;18.70;78.40;;;;;;4932992;28;20772;-72
2021/09/14 08:07:15;;;;;;;5.28;2.88;;;18.90;76.80;;;;;;4938625;29;20035;-72
2021/09/14 08:09:41;;;;;;;4.30;3.05;;;18.90;76.30;;;;;;4934147;28;20119;-72
2021/09/14 08:12:06;;;;;;;3.85;2.78;;;19.00;76.80;;;;;;4938474;28;20052;-72
2021/09/14 08:14:32;;;;;;;4.20;2.33;;;19.00;77.00;;;;;;4937747;28;20043;-71
2021/09/14 08:16:58;;;;;;;5.30;2.55;;;19.00;75.70;;;;;;4931660;28;20035;-72
2021/09/14 08:19:24;;;;;;;6.68;2.88;;;19.00;75.20;;;;;;4945847;28;20082;-71
2021/09/14 08:21:51;;;;;;;7.82;2.72;;;19.00;75.30;;;;;;4937140;28;20113;-72
2021/09/14 08:24:17;;;;;;;4.32;2.67;;;19.10;76.30;;;;;;4937364;28;20443;-72
2021/09/14 08:26:43;;;;;;;6.20;2.90;;;19.30;75.40;;;;;;4939826;28;20035;-71
2021/09/14 08:29:12;;;;;;;2.65;2.40;;;19.30;75.80;;;;;;4934781;29;20028;-72
2021/09/14 08:31:38;;;;;;;6.65;2.92;;;19.30;75.90;;;;;;4950507;28;20100;-69
2021/09/14 08:34:05;;;;;;;3.85;2.35;;;19.40;76.30;;;;;;4930848;28;20038;-72
2021/09/14 08:36:31;;;;;;;4.93;2.72;;;19.40;74.90;;;;;;4940834;28;20152;-73
2021/09/14 08:38:57;;;;;;;3.75;2.63;;;19.40;75.50;;;;;;4935180;28;20043;-70
2021/09/14 08:41:23;;;;;;;7.72;2.80;;;19.50;75.60;;;;;;4931660;29;20113;-70
2021/09/14 08:43:50;;;;;;;4.85;2.33;;;19.80;74.80;;;;;;4940185;28;20055;-67
2021/09/14 08:46:18;;;;;;;7.35;2.60;;;20.10;72.40;;;;;;4950035;28;20419;-76
2021/09/14 08:48:45;;;;;;;5.10;2.35;;;20.20;72.00;;;;;;4939648;28;20178;-76
2021/09/14 08:51:11;;;;;;;5.97;2.58;;;20.20;72.00;;;;;;4943422;28;20099;-76
2021/09/14 08:53:37;;;;;;;5.10;2.72;;;20.00;72.00;;;;;;4938698;28;20073;-75
2021/09/14 08:56:06;;;;;;;10.13;3.28;;;20.00;72.60;;;;;;4937057;29;20075;-76
2021/09/14 08:58:32;;;;;;;4.93;2.60;;;20.10;71.60;;;;;;4937631;29;20114;-75
2021/09/14 09:00:58;;;;;;;7.20;2.90;;;20.20;72.80;;;;;;4945206;28;20031;-75
2021/09/14 09:03:27;;;;;;;6.13;2.80;;;20.30;73.10;;;;;;4946403;28;20044;-75
2021/09/14 09:05:53;;;;;;;3.55;2.40;;;20.40;72.10;;;;;;4935591;28;20035;-75
2021/09/14 09:08:27;;;;;;;4.80;2.47;;;20.50;71.00;;;;;;4939285;28;20099;-73
2021/09/14 09:11:10;;;;;;;3.65;2.72;;;20.50;71.80;;;;;;4934425;29;20442;-73
2021/09/14 09:13:45;;;;;;;5.43;3.00;;;20.60;70.70;;;;;;4935699;28;20067;-74
2021/09/14 09:16:21;;;;;;;5.25;2.70;;;21.00;70.50;;;;;;4935291;28;20051;-73
2021/09/14 09:18:52;;;;;;;5.90;2.47;;;21.00;70.60;;;;;;4932460;28;20050;-73
2021/09/14 09:21:18;;;;;;;7.40;2.60;;;21.00;69.90;;;;;;4937571;28;20134;-72
2021/09/14 09:23:53;;;;;;;8.10;2.83;;;21.00;71.30;;;;;;4940958;28;20043;-72
2021/09/14 09:26:28;;;;;;;4.93;2.72;;;21.00;70.70;;;;;;4937098;28;20036;-72
2021/09/14 09:28:58;;;;;;;6.60;2.67;;;21.00;69.40;;;;;;4934561;28;20031;-71
2021/09/14 09:31:24;;;;;;;5.35;2.40;;;21.10;69.80;;;;;;4941130;28;20035;-74
2021/09/14 09:34:01;;;;;;;4.28;2.50;;;21.00;69.00;;;;;;4952187;28;20031;-73
2021/09/14 09:36:37;;;;;;;4.35;2.42;;;21.00;69.00;;;;;;4935902;28;20043;-74
2021/09/14 09:39:04;;;;;;;;;;;21.00;71.10;;;;;;4942851;28;20061;-74
2021/09/14 09:41:34;;;;;;;6.82;3.28;;;21.10;71.30;;;;;;4932581;29;19997;-75
2021/09/14 09:44:05;;;;;;;5.45;2.55;;;21.20;70.10;;;;;;4938414;28;20039;-75
2021/09/14 09:46:32;;;;;;;4.03;2.70;;;21.30;69.20;;;;;;4932006;29;20078;-75
2021/09/14 09:49:01;;;;;;;6.70;2.72;;;21.40;70.20;;;;;;4944272;28;20125;-74
2021/09/14 09:51:29;;;;;;;5.80;2.75;;;21.40;69.70;;;;;;4927308;29;20097;-74
2021/09/14 09:53:55;;;;;;;6.90;3.33;;;21.50;69.70;;;;;;4946176;28;20055;-76
2021/09/14 09:56:22;;;;;;;6.05;2.58;;;21.50;69.30;;;;;;4937127;28;20062;-76
2021/09/14 09:58:50;;;;;;;5.05;2.60;;;21.50;69.40;;;;;;4941957;28;20106;-76
2021/09/14 10:01:21;;;;;;;4.53;2.47;;;21.90;67.80;;;;;;4941799;28;20844;-78
2021/09/14 10:04:09;;;;;;;5.53;3.42;;;22.70;65.90;;;;;;4938680;28;20121;-78
2021/09/14 10:06:47;;;;;;;7.15;5.35;;;22.90;64.70;;;;;;4913485;29;20612;-78
2021/09/14 10:09:14;;;;;;;8.57;3.30;;;22.60;64.30;;;;;;4929179;28;20036;-79
2021/09/14 10:11:40;;;;;;;4.00;2.85;;;22.40;64.30;;;;;;4930368;29;20933;-78
2021/09/14 10:14:07;;;;;;;6.95;4.97;;;22.00;66.30;;;;;;4941236;28;20039;-78
2021/09/14 10:16:39;;;;;;;3.35;3.05;;;22.10;66.80;;;;;;4941912;28;20039;-78
2021/09/14 10:19:15;;;;;;;8.20;5.05;;;21.90;66.30;;;;;;4936825;28;20053;-75
2021/09/14 10:21:43;;;;;;;5.03;2.63;;;21.80;66.30;;;;;;4947668;28;20039;-76
2021/09/14 10:24:22;;;;;;;4.90;3.00;;;21.80;66.50;;;;;;4944617;28;20042;-75
2021/09/14 10:26:49;;;;;;;4.82;3.33;;;21.70;67.50;;;;;;4931366;28;20040;-78
2021/09/14 10:29:17;;;;;;;4.13;3.30;;;21.60;66.80;;;;;;4944058;28;20035;-76
2021/09/14 10:31:43;;;;;;;6.45;2.88;;;21.50;68.40;;;;;;4933939;28;20024;-77
2021/09/14 10:34:14;;;;;;;5.45;2.63;;;21.30;67.80;;;;;;4948532;28;20035;-76
2021/09/14 10:36:42;;;;;;;4.47;2.60;;;21.30;69.10;;;;;;4935088;28;20968;-76
2021/09/14 10:39:23;;;;;;;9.55;4.88;;;21.30;69.40;;;;;;4932161;29;20039;-79
2021/09/14 10:41:52;;;;;;;6.20;5.00;;;21.20;69.30;;;;;;4928840;29;20739;-80
2021/09/14 10:44:32;;;;;;;7.10;4.20;;;21.20;69.60;;;;;;4947765;28;20051;-76
2021/09/14 10:47:10;;;;;;;6.20;3.47;;;21.40;69.60;;;;;;4934996;28;20491;-78
2021/09/14 10:49:43;;;;;;;3.80;2.70;;;21.60;68.40;;;;;;4934382;29;20106;-78
2021/09/14 10:52:09;;;;;;;4.28;2.60;;;21.60;67.50;;;;;;4929470;29;20031;-78
2021/09/14 10:54:50;;;;;;;2.55;2.30;;;21.60;67.20;;;;;;4946499;28;20070;-78
2021/09/14 10:57:17;;;;;;;5.55;3.05;;;21.70;65.40;;;;;;4944727;28;20040;-78
2021/09/14 10:59:50;;;;;;;6.70;2.67;;;21.60;64.90;;;;;;4934932;28;20043;-78
2021/09/14 11:02:17;;;;;;;2.45;2.20;;;21.60;66.30;;;;;;4934071;29;20122;-78
2021/09/14 11:04:43;;;;;;;4.18;2.30;;;21.60;65.10;;;;;;4945126;28;20043;-78
2021/09/14 11:07:13;;;;;;;4.28;2.40;;;21.60;64.10;;;;;;4931074;28;20442;-79
2021/09/14 11:09:40;;;;;;;4.15;2.40;;;21.40;65.60;;;;;;4941790;28;20090;-78
2021/09/14 11:12:17;;;;;;;3.10;2.67;;;21.40;65.20;;;;;;4937533;29;20113;-78
2021/09/14 11:14:43;;;;;;;4.45;2.58;;;21.60;66.90;;;;;;4929599;28;20031;-78
2021/09/14 11:17:09;;;;;;;4.05;2.38;;;21.70;65.90;;;;;;4943743;28;20104;-78
2021/09/14 11:19:35;;;;;;;4.95;2.45;;;21.70;65.90;;;;;;4937278;28;20488;-79
2021/09/14 11:22:01;;;;;;;5.20;3.08;;;21.90;66.00;;;;;;4927837;29;20050;-76
2021/09/14 11:24:28;;;;;;;4.43;2.90;;;22.00;66.40;;;;;;4952727;28;20123;-74
2021/09/14 11:26:57;;;;;;;4.65;2.65;;;22.10;65.50;;;;;;4944683;28;20035;-73
2021/09/14 11:29:24;;;;;;;5.05;2.58;;;22.20;63.10;;;;;;4930045;28;20118;-75
2021/09/14 11:31:49;;;;;;;3.85;2.33;;;22.20;63.90;;;;;;4931498;29;20127;-76
2021/09/14 11:34:20;;;;;;;3.10;2.15;;;22.10;64.70;;;;;;4934007;28;20788;-75
2021/09/14 11:36:48;;;;;;;6.70;3.03;;;22.20;65.60;;;;;;4924979;29;20679;-77
2021/09/14 11:39:13;;;;;;;3.13;2.35;;;22.20;64.90;;;;;;4953666;28;20052;-77
2021/09/14 11:41:39;;;;;;;4.32;3.13;;;22.30;64.10;;;;;;4925018;29;20067;-77
2021/09/14 11:44:07;;;;;;;3.88;2.80;;;22.30;63.30;;;;;;4944747;28;20035;-78
2021/09/14 11:46:33;;;;;;;4.15;2.53;;;22.20;62.00;;;;;;4932008;29;20150;-77
2021/09/14 11:49:01;;;;;;;4.75;2.70;;;21.90;63.50;;;;;;4929958;29;20096;-77
2021/09/14 11:51:28;;;;;;;5.32;3.60;;;21.80;63.20;;;;;;4932248;28;20099;-77
2021/09/14 11:53:54;;;;;;;11.13;7.05;;;21.90;66.00;;;;;;4931557;28;20032;-77
2021/09/14 11:56:26;;;;;;;5.10;2.88;;;21.90;66.10;;;;;;4938746;28;20051;-66
2021/09/14 11:58:51;;;;;;;8.60;4.55;;;22.10;64.50;;;;;;4934183;28;20047;-78
2021/09/14 12:01:19;;;;;;;10.35;6.32;;;22.20;65.00;;;;;;4935528;28;20042;-80
2021/09/14 12:03:51;;;;;;;4.15;3.72;;;22.30;64.90;;;;;;4937218;28;20087;-73
2021/09/14 12:06:25;;;;;;;4.28;2.58;;;22.50;65.10;;;;;;4931304;29;20038;-77
2021/09/14 12:08:52;;;;;;;4.22;2.83;;;22.60;62.70;;;;;;4927343;28;20695;-79
2021/09/14 12:11:32;;;;;;;6.50;3.47;;;22.80;63.00;;;;;;4932807;28;20527;-81
2021/09/14 12:14:03;;;;;;;6.22;3.00;;;22.90;63.80;;;;;;4912011;29;20398;-79
2021/09/14 12:16:33;;;;;;;4.35;2.95;;;22.90;62.30;;;;;;4929307;28;20046;-79
2021/09/14 12:18:59;;;;;;;3.25;2.95;;;22.90;62.10;;;;;;4936317;28;20035;-79
2021/09/14 12:21:26;;;;;;;3.85;2.42;;;22.70;61.80;;;;;;4942845;29;20045;-78
2021/09/14 12:23:53;;;;;;;3.75;2.63;;;22.70;61.70;;;;;;4933700;29;20468;-77
2021/09/14 12:26:24;;;;;;;2.80;2.10;;;22.70;60.50;;;;;;4931882;28;20129;-77
2021/09/14 12:28:51;;;;;;;3.75;2.30;;;22.70;62.10;;;;;;4939178;28;20034;-78
2021/09/14 12:31:54;;;;;;;3.10;2.60;;;22.80;62.60;;;;;;4951929;28;20036;-79
2021/09/14 12:34:22;;;;;;;3.85;2.50;;;23.00;61.40;;;;;;4942906;28;20046;-78
2021/09/14 12:36:54;;;;;;;2.97;2.47;;;23.00;59.20;;;;;;4931446;29;20035;-78
2021/09/14 12:40:19;;;;;;;3.67;2.53;;;23.10;61.20;;;;;;4931997;29;20460;-78
2021/09/14 12:42:45;;;;;;;3.60;3.03;;;23.30;60.60;;;;;;4942548;28;20049;-79
2021/09/14 12:45:11;;;;;;;5.13;3.80;;;23.40;59.60;;;;;;4937167;28;20036;-79
2021/09/14 12:47:37;;;;;;;9.75;5.28;;;23.30;58.40;;;;;;4936441;28;20047;-79
2021/09/14 12:50:03;;;;;;;11.07;8.07;;;23.20;60.40;;;;;;4933833;29;20036;-77
2021/09/14 12:52:29;;;;;;;8.27;5.88;;;23.30;60.30;;;;;;4936921;29;20039;-76
2021/09/14 12:54:55;;;;;;;18.60;10.43;;;23.30;59.50;;;;;;4930772;28;20836;-83
2021/09/14 12:57:20;;;;;;;7.53;4.97;;;23.40;59.70;;;;;;4940253;29;20680;-80
2021/09/14 12:59:46;;;;;;;11.68;7.47;;;23.30;59.00;;;;;;4943660;28;20832;-81
2021/09/14 13:02:11;;;;;;;8.40;5.68;;;23.20;60.60;;;;;;4927607;29;20043;-79
2021/09/14 13:04:37;;;;;;;9.50;5.07;;;23.00;59.50;;;;;;4928818;29;20039;-79
2021/09/14 13:07:03;;;;;;;7.95;5.05;;;23.10;61.10;;;;;;4937652;29;20098;-79
2021/09/14 13:09:29;;;;;;;9.35;7.00;;;23.10;60.90;;;;;;4935222;29;20085;-78
2021/09/14 13:11:55;;;;;;;5.13;3.95;;;23.10;60.20;;;;;;4940799;28;20038;-78
2021/09/14 13:17:04;;;;;;;4.93;3.70;;;23.10;60.70;;;;;;4945218;28;20034;-70
2021/09/14 13:19:30;;;;;;;6.00;4.47;;;23.10;59.90;;;;;;4935782;29;20047;-79
2021/09/14 13:21:56;;;;;;;5.55;4.25;;;23.10;60.20;;;;;;4939193;28;20074;-79
2021/09/14 13:24:21;;;;;;;7.57;6.10;;;23.10;61.40;;;;;;4929509;29;20563;-78
2021/09/14 13:26:48;;;;;;;6.80;3.42;;;23.10;62.00;;;;;;4940433;28;20058;-78
2021/09/14 13:29:14;;;;;;;10.32;4.70;;;23.20;61.10;;;;;;4938591;28;20035;-77
2021/09/14 13:31:39;;;;;;;7.30;4.05;;;23.20;61.70;;;;;;4933671;29;20039;-80
2021/09/14 13:34:05;;;;;;;3.92;2.88;;;23.10;61.70;;;;;;4933377;28;20046;-79
2021/09/14 13:36:31;;;;;;;4.65;3.70;;;23.00;60.20;;;;;;4931193;29;20051;-80
2021/09/14 13:38:56;;;;;;;5.43;2.67;;;23.00;60.40;;;;;;4929396;28;20043;-79
2021/09/14 13:41:28;;;;;;;3.67;3.33;;;23.00;59.40;;;;;;4936107;28;20046;-79
2021/09/14 13:43:58;;;;;;;4.72;2.83;;;23.00;59.70;;;;;;4939701;28;20558;-79
2021/09/14 13:46:24;;;;;;;3.17;2.75;;;23.00;60.40;;;;;;4937628;29;20038;-80
2021/09/14 13:48:55;;;;;;;5.72;3.30;;;23.10;60.70;;;;;;4938244;28;20844;-79